Weather at Chan Gurney Municipal Airport

Public forecast

Using degrees Fahrenheit for public forecast. Weather courtesy of forecast.io.

Current aviation weather report (METAR) for Chan Gurney Municipal Airport

2024/07/13 17:56 (retrieved 50 minutes ago)

KYKN 131756Z AUTO 05004KT 10SM CLR 31/26 A2994 RMK AO2 SLP139 T03110256 10322 20222 55004

Closest aviation forecast (TAF) to Chan Gurney Municipal Airport

Closest forecast is Sioux Falls Regional Airport / Joe Foss Field, 49.1 nm (90.9 km) NE.

2024/07/13 18:36 (retrieved 10 minutes ago)

TAF KFSD 131733Z 1318/1418 16007KT P6SM FEW015 SCT200 FM132000 18008KT P6SM SCT150 FM132200 18008KT P6SM BKN150 FM140200 15005KT P6SM SCT150 FM140600 VRB04KT P6SM SCT150